** WELKOM OP ONZE WEBSITE MET ACTUELE WEERDATA VANUIT IZEGEM **
Extreme hitte van: 01-08-2018 09:59 tot: 02-08-2018 23:59 waarschuwing voor: Extreme hitte niveau: Geel info button

Weercam te Izegem Meer informatie Weercam te Izegem


Lokaal brand risico:
FWI


Regionaal brand risico: Meer informatie


Steun ons initiatief via een kleine donatie!



METAR rapporten vliegvelden

   
EBOS - Oostende Airport, Belgium
Afstand tot: NW 39 km
Gewijzigd: 30-07-2018 06:50
Grotendeels bewolkt  
Grotendeels bewolkt  
   Wind: Zuiden 11.1 km/h
Wind: Zuiden 11.1 km/h
Temperatuur: 19°C
Dauwpunt: 15°C
Vochtigheid: 78%
Barometer: 1013 hPa
Bewolking: Mostly Cloudy
Zicht: meer dan 10 km
Bewolking: Grotendeels bewolkt 2500 ft
EBOS 300450Z 17006KT 9999 BKN025 19/15 Q1013 NOSIG
LFQQ - Lille/Lesquin, France
Afstand tot: Z 40 km
Gewijzigd: 30-07-2018 07:00
Helder  
Helder  
   Wind: Zuiden 14.8 km/h
Wind: Zuiden 14.8 km/h
Temperatuur: 20°C
Dauwpunt: 16°C
Vochtigheid: 78%
Barometer: 1013 hPa
Zicht: meer dan 10 km
Bewolking: Helder ft
LFQQ 300500Z AUTO 18008KT CAVOK 20/16 Q1013 NOSIG
EBFN - Koksijde (bel-Af, Belgium
Afstand tot: WNW 43 km
Gewijzigd: 30-07-2018 06:55
Grotendeels bewolkt  
Grotendeels bewolkt  
   Wind: Zuiden 14.8 km/h
Wind: Zuiden 14.8 km/h
Temperatuur: 20°C
Dauwpunt: 16°C
Vochtigheid: 78%
Barometer: 1012 hPa
Bewolking: Mostly Cloudy
Zicht: meer dan 10 km
Bewolking: Licht bewolkt 2000 ft,
Grotendeels bewolkt 2400 ft
EBFN 300455Z 17008KT 9999 FEW020 BKN024 20/16 Q1012 WHT WHT BECMG BLU
EBCV - Chievres Ab, Belgium
Afstand tot: ZO 59 km
Gewijzigd: 21-07-2018 08:25
Verouderd
  
  
   Wind: Noorden 7.4 km/h
Wind: Noorden 7.4 km/h
Temperatuur: 18°C
Dauwpunt: 15°C
Vochtigheid: 83%
Barometer: 1012 hPa
EBCV 210625Z AUTO 35004KT //// /// 18/15 Q1012
EHFS - Vlissingen, Netherlands
Afstand tot: NNO 65 km
Gewijzigd: 30-07-2018 06:55
Gedeeltelijk bewolkt  
Gedeeltelijk bewolkt  
   Wind: Zuiden 20.4 km/h
Wind: Zuiden 20.4 km/h
Temperatuur: 21°C
Dauwpunt: 18°C
Vochtigheid: 83%
Barometer: 1012 hPa
Bewolking: Partly Cloudy
Zicht: meer dan 10 km
Bewolking: Gedeeltelijk bewolkt ft
EHFS 300455Z AUTO 18011KT 9999 NSC 21/18 Q1012 W///H///
EBBR - Brussels Nationa, Belgium
Afstand tot: O 91 km
Gewijzigd: 30-07-2018 06:50
Helder  
Helder  
   Wind: Zuiden 11.1 km/h
Wind: Zuiden 11.1 km/h
Temperatuur: 20°C
Dauwpunt: 15°C
Vochtigheid: 73%
Barometer: 1014 hPa
Zicht: meer dan 10 km
Bewolking: Helder ft
EBBR 300450Z 18006KT CAVOK 20/15 Q1014 NOSIG
EBAW - Antwerp/Deurne, Belgium
Afstand tot: ONO 94 km
Gewijzigd: 30-07-2018 06:50
Helder  
Helder  
   Wind: ZZO 7.4 km/h
Wind: ZZO 7.4 km/h
Temperatuur: 22°C
Dauwpunt: 16°C
Vochtigheid: 69%
Barometer: 1014 hPa
Zicht: meer dan 10 km
Bewolking: Helder ft
EBAW 300450Z 15004KT CAVOK 22/16 Q1014 NOSIG
EHWO - Woensdrecht Rnla, Netherlands
Afstand tot: NO 98 km
Gewijzigd: 30-07-2018 06:55
Bewolking  
Bewolking  
   Wind: Zuiden 7.4 km/h
Wind: Zuiden 7.4 km/h
Temperatuur: 22°C
Dauwpunt: 16°C
Vochtigheid: 69%
Barometer: 1013 hPa
Bewolking: Overcast
Zicht: meer dan 10 km
Bewolking: Bewolking 7400 ft
EHWO 300455Z AUTO 19004KT 150V210 9999 OVC074 22/16 Q1013 BLU
EBCI - Charleroi/Gossel, Belgium
Afstand tot: OZO 102 km
Gewijzigd: 30-07-2018 06:50
Helder  
Helder  
   Wind: Zuiden 14.8 km/h
Wind: Zuiden 14.8 km/h
Temperatuur: 20°C
Dauwpunt: 14°C
Vochtigheid: 69%
Barometer: 1015 hPa
Zicht: meer dan 10 km
Bewolking: Helder ft
EBCI 300450Z 19008KT CAVOK 20/14 Q1015 NOSIG

Script ontwikkeld door  Saratoga-weather.org Aangepast voor de template door  Weerstation Leuven